עמוד ראשי
METAR-TAF:

METAR-TAF

שדות תעופה :

Buraidah, ערב הסעודית

קו רוחב: 26-18N, קו אורך: 043-46E, גובה: 648מטר

תצפית מזג אוויר נוכחית

הדו"ח נערך לפני 1 שעות ו 1דקות, בשעה 19:00 UTC
רוח 7קשר מכיוון צפון
טמפרטורת 35 צלסיוס
לחות 12%
לחץ 1009 hPa
ראות 10 קילומטר או יותר
ללא עננים שבסיסם נמוך מ 5000 רגל או קומולונימבוס

METAR: OEGS 131900Z 36007KT CAVOK 35/01 Q1009

זמן: 23:01 (20:01 UTC)

תחזית

הדו"ח נערך לפני 9 שעות ו 1דקות, בשעה 11:00 UTC
תחזית בתוקף מ 13 ב 12 UTC עד 14 ב 18 UTC
רוח 15קשר מכיוון צפון
ראות: 7000מטר

TAF: OEGS 131100Z 1312/1418 35015KT 7000 NSC

תצפיות ותחזיות מזג אוויר לגבי יותר מ- 4,000 שדות תעופה ברחבי העולם. דוחות METAR ו- TAF.

התחנות הזמינות מסומנות בנקודות צהובות ואדומות על גבי המפה.

העבר את העכבר לנקודה הצבעונית על מנת לראות את שם התחנה.

לאחר מכן, לחץ כדי לראות את תוכן ואת תחזיות מזג האוויר.

כדי לשנות את המפה: לחץ על הכפתורים הירוקים עם הפלוס השחור כדי להתקרב; על הכפתור הירוק עם המקף כדי להתרחק; או בחיצים הירוקים למפות סמוכות.


METAR-TAF: